Time;durP1;ratioP1;P1;durP2;ratioP2;P2;SDS_P1;SDS_P2;PMS_P1;PMS_P2;Temp;Humidity;BMP_temperature;BMP_pressure;BME280_temperature;BME280_humidity;BME280_pressure;Samples;Min_cycle;Max_cycle;Signal;HPM_P1;HPM_P2
2023/04/18 00:02:16;;;;;;;11.07;7.30;;;8.60;1.00;;;;;;5021179;28;20485;-82
2023/04/18 00:04:45;;;;;;;13.20;7.20;;;8.50;99.90;;;;;;5022900;28;20960;-82
2023/04/18 00:07:13;;;;;;;9.60;6.97;;;8.50;99.90;;;;;;5023126;28;20823;-82
2023/04/18 00:09:40;;;;;;;9.97;6.80;;;8.40;99.90;;;;;;5021611;28;20462;-82
2023/04/18 00:12:07;;;;;;;9.20;6.13;;;8.40;1.00;;;;;;5020593;28;20459;-82
2023/04/18 00:14:36;;;;;;;10.97;7.30;;;8.40;99.90;;;;;;5021977;28;20455;-83
2023/04/18 00:17:03;;;;;;;10.50;6.80;;;8.30;99.90;;;;;;5021487;28;20495;-80
2023/04/18 00:19:33;;;;;;;12.90;6.00;;;8.30;1.00;;;;;;5024890;28;20531;-81
2023/04/18 00:21:59;;;;;;;10.67;7.47;;;8.20;99.90;;;;;;5022837;28;20478;-80
2023/04/18 00:24:26;;;;;;;9.10;6.67;;;8.20;99.90;;;;;;5023369;28;20447;-81
2023/04/18 00:26:53;;;;;;;7.20;5.83;;;8.20;1.00;;;;;;5023285;28;20550;-81
2023/04/18 00:29:20;;;;;;;9.10;7.57;;;8.20;1.00;;;;;;5023381;28;20549;-81
2023/04/18 00:31:46;;;;;;;8.90;5.90;;;8.20;99.90;;;;;;5000710;28;20986;-81
2023/04/18 00:34:13;;;;;;;10.40;7.03;;;8.20;99.90;;;;;;5004638;28;20469;-82
2023/04/18 00:36:41;;;;;;;9.43;7.07;;;8.10;1.00;;;;;;5020412;28;20454;-83
2023/04/18 00:39:08;;;;;;;10.13;6.00;;;8.10;1.00;;;;;;5019796;28;20915;-82
2023/04/18 00:41:35;;;;;;;9.30;5.93;;;8.10;14.20;;;;;;5018658;28;20595;-81
2023/04/18 00:44:02;;;;;;;11.77;7.63;;;8.00;1.00;;;;;;5018775;28;20447;-82
2023/04/18 00:46:28;;;;;;;9.30;6.13;;;8.00;1.00;;;;;;5018358;28;20881;-81
2023/04/18 00:48:55;;;;;;;9.50;6.53;;;7.90;99.90;;;;;;5019183;28;20480;-83
2023/04/18 00:51:22;;;;;;;9.53;6.80;;;8.00;99.90;;;;;;5017454;28;20476;-82
2023/04/18 00:53:51;;;;;;;8.80;6.00;;;7.90;1.00;;;;;;5018878;28;20457;-81
2023/04/18 00:56:18;;;;;;;11.03;6.80;;;7.90;1.00;;;;;;5018327;28;20960;-82
2023/04/18 00:58:44;;;;;;;11.80;7.70;;;7.90;1.00;;;;;;5018957;28;20482;-82
2023/04/18 01:01:12;;;;;;;9.13;7.47;;;7.90;1.00;;;;;;5017238;28;20451;-83
2023/04/18 01:03:39;;;;;;;7.50;6.20;;;7.90;99.90;;;;;;5017979;28;20468;-81
2023/04/18 01:06:06;;;;;;;10.33;7.00;;;7.80;99.90;;;;;;5018580;28;20531;-83
2023/04/18 01:08:33;;;;;;;8.43;6.33;;;7.80;1.00;;;;;;5018154;28;20481;-81
2023/04/18 01:11:01;;;;;;;8.50;6.00;;;7.80;1.00;;;;;;5017268;28;20453;-82
2023/04/18 01:13:28;;;;;;;7.97;5.93;;;7.70;1.00;;;;;;5018233;28;20551;-83
2023/04/18 01:15:55;;;;;;;10.53;6.30;;;7.70;1.00;;;;;;5017876;28;20442;-83
2023/04/18 01:18:23;;;;;;;7.60;6.40;;;7.80;1.00;;;;;;5017761;28;20494;-83
2023/04/18 01:20:51;;;;;;;9.20;6.00;;;7.70;1.00;;;;;;5016746;28;21155;-81
2023/04/18 01:23:19;;;;;;;6.97;5.67;;;7.60;99.90;;;;;;5017845;28;20469;-82
2023/04/18 01:25:49;;;;;;;8.70;6.20;;;7.70;99.90;;;;;;5017523;28;20584;-81
2023/04/18 01:28:16;;;;;;;10.33;5.90;;;7.70;1.00;;;;;;5017482;28;20474;-82
2023/04/18 01:30:43;;;;;;;8.77;6.13;;;7.60;99.90;;;;;;5016293;28;20445;-83
2023/04/18 01:33:10;;;;;;;8.13;5.73;;;7.60;99.90;;;;;;5017934;28;20456;-82
2023/04/18 01:35:36;;;;;;;6.73;5.13;;;7.60;99.90;;;;;;5016835;28;20533;-81
2023/04/18 01:38:03;;;;;;;7.07;5.83;;;7.50;99.90;;;;;;5016044;28;20849;-82
2023/04/18 01:40:30;;;;;;;6.67;4.90;;;7.60;99.90;;;;;;5017292;28;20552;-80
2023/04/18 01:42:58;;;;;;;8.50;6.37;;;7.50;1.00;;;;;;5017150;28;20477;-82
2023/04/18 01:45:25;;;;;;;7.70;5.30;;;7.50;1.00;;;;;;5017149;28;20533;-83
2023/04/18 01:47:52;;;;;;;8.80;6.30;;;7.50;99.90;;;;;;5016262;28;20605;-82
2023/04/18 01:50:19;;;;;;;8.23;5.73;;;7.50;1.00;;;;;;5017408;28;20461;-83
2023/04/18 01:52:46;;;;;;;7.17;5.53;;;7.40;1.00;;;;;;5014023;28;20456;-83
2023/04/18 01:55:12;;;;;;;9.50;6.10;;;7.40;1.00;;;;;;5015320;28;20458;-80
2023/04/18 01:57:39;;;;;;;5.90;4.87;;;7.30;1.00;;;;;;5016055;28;20472;-82
2023/04/18 02:00:09;;;;;;;6.87;4.80;;;7.30;1.00;;;;;;5015174;28;20465;-83
2023/04/18 02:02:36;;;;;;;6.87;5.67;;;7.30;1.00;;;;;;5014840;28;20460;-81
2023/04/18 02:05:02;;;;;;;11.87;4.60;;;7.20;1.00;;;;;;5015933;28;20457;-82
2023/04/18 02:07:29;;;;;;;7.57;5.20;;;7.20;7.80;;;;;;5016204;28;20540;-82
2023/04/18 02:09:56;;;;;;;6.50;5.00;;;7.20;91.60;;;;;;5016053;28;20453;-82
2023/04/18 02:12:23;;;;;;;8.03;4.80;;;7.20;38.90;;;;;;5013692;28;20525;-83
2023/04/18 02:14:52;;;;;;;6.50;5.07;;;7.10;99.90;;;;;;5016192;28;20557;-82
2023/04/18 02:17:22;;;;;;;6.33;5.43;;;7.10;86.30;;;;;;5015295;28;20485;-81
2023/04/18 02:19:48;;;;;;;5.60;4.73;;;7.00;99.90;;;;;;5027842;28;20925;-82
2023/04/18 02:22:15;;;;;;;8.30;4.43;;;7.00;99.90;;;;;;5028143;28;20483;-81
2023/04/18 02:24:42;;;;;;;8.43;4.77;;;7.00;99.90;;;;;;5015441;28;20826;-83
2023/04/18 02:27:09;;;;;;;7.30;5.37;;;7.00;99.90;;;;;;5015573;28;20494;-82
2023/04/18 02:29:36;;;;;;;6.37;5.03;;;7.00;99.90;;;;;;5015176;28;20460;-81
2023/04/18 02:32:03;;;;;;;6.17;4.20;;;7.00;99.90;;;;;;5015619;28;20453;-82
2023/04/18 02:34:32;;;;;;;8.40;6.07;;;7.00;99.90;;;;;;5017481;28;20823;-82
2023/04/18 02:36:59;;;;;;;7.10;4.93;;;7.00;99.90;;;;;;5019025;28;20476;-82
2023/04/18 02:39:26;;;;;;;6.13;4.93;;;7.00;99.90;;;;;;5018716;28;20454;-82
2023/04/18 02:41:52;;;;;;;8.33;4.80;;;6.90;99.90;;;;;;5018911;28;20444;-81
2023/04/18 02:44:19;;;;;;;5.63;4.30;;;6.90;99.90;;;;;;5018870;28;20543;-81
2023/04/18 02:46:46;;;;;;;6.30;5.10;;;7.00;99.90;;;;;;5019180;28;20496;-82
2023/04/18 02:49:13;;;;;;;6.77;5.30;;;6.90;99.90;;;;;;5017369;28;20845;-81
2023/04/18 02:51:41;;;;;;;6.60;5.17;;;7.00;99.90;;;;;;5017985;28;20467;-81
2023/04/18 02:54:08;;;;;;;7.67;5.47;;;7.00;99.90;;;;;;5019095;28;20455;-81
2023/04/18 02:56:38;;;;;;;7.63;4.73;;;7.00;99.90;;;;;;5019264;28;20544;-82
2023/04/18 02:59:05;;;;;;;6.90;4.63;;;7.00;99.90;;;;;;5018757;28;20500;-81
2023/04/18 03:01:32;;;;;;;6.50;4.43;;;7.00;99.90;;;;;;5009811;28;20471;-81
2023/04/18 03:03:59;;;;;;;6.80;4.97;;;7.00;99.90;;;;;;5019540;28;20464;-81
2023/04/18 03:06:26;;;;;;;8.53;4.40;;;7.00;99.90;;;;;;5019268;28;20491;-81
2023/04/18 03:08:55;;;;;;;10.30;5.80;;;7.00;99.90;;;;;;5018402;28;20481;-82
2023/04/18 03:11:22;;;;;;;6.20;4.90;;;7.00;99.90;;;;;;5018637;28;20464;-83
2023/04/18 03:13:48;;;;;;;7.50;5.23;;;7.00;99.90;;;;;;5019297;28;20458;-81
2023/04/18 03:16:15;;;;;;;5.60;4.47;;;7.10;99.90;;;;;;5018602;28;20862;-81
2023/04/18 03:18:42;;;;;;;6.40;4.63;;;7.10;99.90;;;;;;5019663;28;20487;-82
2023/04/18 03:21:10;;;;;;;5.60;4.40;;;7.00;99.90;;;;;;5018118;28;20458;-82
2023/04/18 03:23:37;;;;;;;6.20;5.47;;;7.00;99.90;;;;;;5020880;28;20957;-81
2023/04/18 03:26:06;;;;;;;7.90;5.37;;;7.00;99.90;;;;;;5018901;28;20491;-82
2023/04/18 03:28:33;;;;;;;6.40;4.73;;;7.00;99.90;;;;;;5018976;28;20559;-82
2023/04/18 03:31:00;;;;;;;6.47;5.43;;;7.00;99.90;;;;;;5018943;28;20467;-80
2023/04/18 03:33:27;;;;;;;7.10;5.80;;;6.90;99.90;;;;;;5019343;28;20460;-83
2023/04/18 03:35:54;;;;;;;6.83;5.53;;;6.90;99.90;;;;;;5019501;28;20457;-82
2023/04/18 03:38:21;;;;;;;7.00;5.30;;;6.90;99.90;;;;;;5018798;28;20472;-82
2023/04/18 03:40:48;;;;;;;8.90;6.57;;;7.00;99.90;;;;;;5017900;28;20461;-83
2023/04/18 03:43:16;;;;;;;6.93;4.97;;;7.00;99.90;;;;;;5017876;28;20461;-83
2023/04/18 03:45:45;;;;;;;9.53;5.93;;;6.90;99.90;;;;;;5017599;28;20520;-82
2023/04/18 03:48:12;;;;;;;7.40;5.90;;;6.90;99.90;;;;;;5016698;28;20477;-82
2023/04/18 03:50:39;;;;;;;5.90;5.30;;;7.00;99.90;;;;;;5017763;28;20453;-82
2023/04/18 03:53:06;;;;;;;10.63;5.10;;;7.00;99.90;;;;;;5018659;28;20852;-82
2023/04/18 03:55:33;;;;;;;7.80;6.07;;;7.00;99.90;;;;;;5017496;28;20464;-86
2023/04/18 03:58:00;;;;;;;7.37;5.70;;;7.00;99.90;;;;;;5017785;28;20477;-85
2023/04/18 04:00:28;;;;;;;7.00;5.47;;;7.00;99.90;;;;;;5019548;28;20571;-85
2023/04/18 04:02:55;;;;;;;6.27;5.67;;;6.90;99.90;;;;;;5018486;28;20499;-85
2023/04/18 04:05:22;;;;;;;6.07;5.10;;;6.80;99.90;;;;;;5018272;28;20516;-84
2023/04/18 04:07:49;;;;;;;7.33;6.10;;;6.80;99.90;;;;;;5015844;28;20935;-81
2023/04/18 04:10:15;;;;;;;9.03;6.80;;;6.80;99.90;;;;;;5010838;28;20966;-83
2023/04/18 04:12:42;;;;;;;7.73;6.40;;;6.80;99.90;;;;;;5022329;28;20460;-82
2023/04/18 04:15:10;;;;;;;9.90;7.97;;;6.80;1.00;;;;;;5035704;28;20535;-82
2023/04/18 04:17:38;;;;;;;8.93;7.93;;;6.80;1.00;;;;;;5024153;28;20498;-81
2023/04/18 04:20:06;;;;;;;8.37;7.20;;;6.90;1.00;;;;;;5016628;28;20445;-82
2023/04/18 04:22:33;;;;;;;7.97;6.60;;;6.90;1.00;;;;;;5019989;28;20459;-82
2023/04/18 04:25:00;;;;;;;8.20;7.20;;;7.00;1.00;;;;;;5023789;28;20471;-81
2023/04/18 04:27:27;;;;;;;11.70;7.50;;;7.10;1.00;;;;;;5018258;28;20494;-82
2023/04/18 04:29:55;;;;;;;9.23;8.00;;;7.20;99.90;;;;;;5014809;28;20465;-82
2023/04/18 04:32:23;;;;;;;9.17;6.97;;;7.30;99.90;;;;;;5018094;28;20452;-81
2023/04/18 04:34:52;;;;;;;10.27;8.50;;;7.40;99.90;;;;;;5025075;28;20458;-81
2023/04/18 04:37:20;;;;;;;8.60;7.20;;;7.50;99.90;;;;;;5024012;28;20472;-82
2023/04/18 04:39:47;;;;;;;10.27;8.63;;;7.60;99.90;;;;;;5026133;28;20493;-82
2023/04/18 04:42:14;;;;;;;8.20;7.10;;;7.70;99.90;;;;;;5025336;28;20487;-80
2023/04/18 04:44:41;;;;;;;8.93;7.77;;;7.70;99.90;;;;;;5024391;28;20511;-80
2023/04/18 04:47:08;;;;;;;8.70;7.60;;;7.80;99.90;;;;;;5024835;28;20490;-79
2023/04/18 04:49:35;;;;;;;9.30;7.93;;;7.80;99.90;;;;;;5025493;28;20529;-80
2023/04/18 04:52:03;;;;;;;8.60;7.70;;;7.90;1.00;;;;;;5024342;28;20531;-79
2023/04/18 04:54:30;;;;;;;8.77;7.17;;;7.80;1.00;;;;;;5025756;28;20453;-79
2023/04/18 04:56:56;;;;;;;9.70;7.90;;;7.90;1.00;;;;;;5023874;28;20450;-79
2023/04/18 04:59:23;;;;;;;10.80;8.60;;;7.90;1.00;;;;;;5024923;28;20456;-81
2023/04/18 05:01:50;;;;;;;9.77;8.13;;;8.00;1.00;;;;;;5024425;28;20480;-80
2023/04/18 05:04:17;;;;;;;9.23;8.17;;;8.10;99.90;;;;;;5026198;28;20533;-79
2023/04/18 05:06:44;;;;;;;11.10;8.77;;;8.10;99.90;;;;;;5020942;28;20534;-82
2023/04/18 05:09:13;;;;;;;9.93;8.20;;;8.10;99.90;;;;;;5017625;28;20466;-82
2023/04/18 05:11:41;;;;;;;9.17;7.70;;;8.20;99.90;;;;;;5022293;28;20447;-79
2023/04/18 05:14:08;;;;;;;12.73;8.30;;;8.30;1.00;;;;;;5024924;28;20487;-83
2023/04/18 05:16:35;;;;;;;13.23;8.73;;;8.10;99.90;;;;;;5025028;28;20506;-82
2023/04/18 05:19:02;;;;;;;8.83;7.00;;;8.10;99.90;;;;;;5024754;28;20486;-82
2023/04/18 05:21:30;;;;;;;9.67;8.00;;;8.20;99.90;;;;;;5026086;28;20488;-81
2023/04/18 05:23:57;;;;;;;11.10;8.80;;;8.30;99.90;;;;;;5026932;28;21042;-82
2023/04/18 05:26:25;;;;;;;12.20;8.93;;;8.40;99.90;;;;;;5024990;28;20449;-82
2023/04/18 05:28:52;;;;;;;11.53;9.00;;;8.50;1.00;;;;;;5026211;28;20477;-81
2023/04/18 05:31:18;;;;;;;10.13;8.33;;;8.40;99.90;;;;;;5025608;28;20447;-79
2023/04/18 05:33:45;;;;;;;10.10;8.60;;;8.40;99.90;;;;;;5025758;28;20453;-81
2023/04/18 05:36:12;;;;;;;11.37;8.80;;;8.30;1.00;;;;;;5024070;28;20514;-79
2023/04/18 05:38:39;;;;;;;11.40;9.30;;;8.20;1.00;;;;;;5024418;28;20497;-81
2023/04/18 05:41:06;;;;;;;10.90;8.33;;;8.00;1.00;;;;;;5021005;28;20871;-80
2023/04/18 05:43:34;;;;;;;9.83;8.00;;;7.90;99.90;;;;;;5022503;28;20525;-80
2023/04/18 05:46:00;;;;;;;10.67;8.70;;;8.00;1.00;;;;;;5022040;28;20549;-79
2023/04/18 05:48:27;;;;;;;8.50;7.60;;;8.00;1.00;;;;;;5023919;28;20997;-80
2023/04/18 05:50:54;;;;;;;9.93;8.00;;;8.10;1.00;;;;;;5021174;28;20529;-82
2023/04/18 05:53:21;;;;;;;10.40;8.13;;;8.10;98.80;;;;;;5022901;28;20536;-82
2023/04/18 05:55:49;;;;;;;10.70;7.77;;;8.20;1.00;;;;;;5022310;28;20513;-82
2023/04/18 05:58:15;;;;;;;9.63;8.00;;;8.20;1.00;;;;;;5024332;28;20474;-81
2023/04/18 06:00:44;;;;;;;8.83;6.77;;;8.20;99.90;;;;;;5021164;28;20517;-82
2023/04/18 06:03:11;;;;;;;9.17;7.50;;;8.20;1.00;;;;;;5023436;28;20542;-81
2023/04/18 06:05:39;;;;;;;9.60;8.40;;;8.10;1.00;;;;;;5022980;28;20481;-82
2023/04/18 06:08:07;;;;;;;9.97;7.83;;;8.00;1.00;;;;;;5024993;28;20557;-82
2023/04/18 06:10:34;;;;;;;9.77;7.73;;;8.10;90.40;;;;;;5025432;28;20438;-82
2023/04/18 06:13:01;;;;;;;11.73;8.23;;;8.30;49.00;;;;;;5029252;28;20457;-82
2023/04/18 06:15:28;;;;;;;9.77;7.60;;;8.50;1.00;;;;;;5028650;28;20450;-79
2023/04/18 06:17:56;;;;;;;10.67;7.87;;;8.70;99.90;;;;;;5028609;28;20477;-82
2023/04/18 06:20:23;;;;;;;8.63;7.10;;;8.90;99.90;;;;;;5029517;28;20488;-81
2023/04/18 06:22:50;;;;;;;10.13;7.87;;;9.00;99.90;;;;;;5030100;28;20520;-82
2023/04/18 06:25:17;;;;;;;11.37;9.10;;;9.10;1.00;;;;;;5029705;28;20461;-82
2023/04/18 06:27:44;;;;;;;10.50;7.20;;;9.20;99.90;;;;;;5029301;28;21087;-81
2023/04/18 06:30:11;;;;;;;12.90;9.63;;;9.30;99.90;;;;;;5028304;28;20447;-82
2023/04/18 06:32:38;;;;;;;9.70;8.07;;;9.30;99.90;;;;;;5028266;28;20952;-82
2023/04/18 06:35:07;;;;;;;12.30;10.27;;;9.40;1.00;;;;;;5029154;28;20457;-81
2023/04/18 06:37:34;;;;;;;11.07;8.70;;;9.40;99.90;;;;;;5028607;28;20501;-83
2023/04/18 06:40:01;;;;;;;11.73;9.40;;;9.40;1.00;;;;;;5028039;28;20490;-81
2023/04/18 06:42:27;;;;;;;12.23;9.07;;;9.50;99.90;;;;;;5028310;28;20466;-81
2023/04/18 06:44:54;;;;;;;12.30;9.57;;;9.50;1.00;;;;;;5028137;28;20554;-82
2023/04/18 06:47:22;;;;;;;10.33;8.40;;;9.50;37.70;;;;;;5027402;28;20496;-81
2023/04/18 06:49:48;;;;;;;12.43;9.60;;;9.50;6.90;;;;;;5026920;28;20958;-81
2023/04/18 06:52:17;;;;;;;12.90;9.53;;;9.50;99.90;;;;;;5026498;28;20544;-81
2023/04/18 06:54:43;;;;;;;12.20;8.67;;;9.50;99.90;;;;;;5027165;28;20514;-81
2023/04/18 06:57:10;;;;;;;13.10;9.33;;;9.60;99.90;;;;;;5028085;28;20553;-84
2023/04/18 06:59:37;;;;;;;9.37;8.43;;;9.70;99.90;;;;;;5027752;28;20476;-82
2023/04/18 07:02:04;;;;;;;11.80;10.07;;;9.60;1.00;;;;;;5026486;28;20456;-83
2023/04/18 07:04:31;;;;;;;12.73;9.70;;;9.70;1.00;;;;;;5026853;28;20517;-84
2023/04/18 07:06:58;;;;;;;13.33;9.80;;;9.80;99.90;;;;;;5027575;28;20501;-82
2023/04/18 07:09:26;;;;;;;11.60;9.90;;;9.70;1.00;;;;;;5028748;28;20520;-82
2023/04/18 07:11:53;;;;;;;11.43;9.80;;;9.90;99.90;;;;;;5028397;28;20461;-80
2023/04/18 07:14:20;;;;;;;10.03;9.00;;;9.80;1.00;;;;;;5027115;28;20460;-82
2023/04/18 07:16:47;;;;;;;12.00;9.60;;;9.90;99.90;;;;;;5025991;28;20535;-81
2023/04/18 07:19:14;;;;;;;14.30;10.10;;;10.00;99.90;;;;;;5027079;28;20478;-82
2023/04/18 07:21:42;;;;;;;13.40;9.97;;;10.00;99.90;;;;;;5026240;28;21150;-82
2023/04/18 07:24:09;;;;;;;11.70;9.60;;;10.00;99.90;;;;;;5029032;28;20478;-84
2023/04/18 07:26:38;;;;;;;13.33;10.07;;;10.00;1.00;;;;;;5037791;28;20451;-80
2023/04/18 07:29:05;;;;;;;13.43;10.87;;;10.00;99.90;;;;;;5037094;28;20536;-83
2023/04/18 07:31:32;;;;;;;13.03;10.60;;;10.00;99.90;;;;;;5035081;28;20444;-82
2023/04/18 07:33:59;;;;;;;14.67;10.80;;;10.10;99.90;;;;;;5031543;28;20457;-84
2023/04/18 07:36:27;;;;;;;12.33;10.20;;;10.10;1.00;;;;;;5030500;28;20459;-83
2023/04/18 07:38:53;;;;;;;11.70;9.30;;;10.20;99.90;;;;;;5028423;28;20546;-83
2023/04/18 07:41:20;;;;;;;13.20;10.40;;;10.20;97.80;;;;;;5026282;28;20465;-84
2023/04/18 07:43:48;;;;;;;12.67;10.70;;;10.20;99.90;;;;;;5027422;28;20452;-82
2023/04/18 07:46:15;;;;;;;12.93;10.80;;;10.10;99.90;;;;;;5026699;28;20455;-83
2023/04/18 07:48:42;;;;;;;13.70;10.17;;;9.80;27.20;;;;;;5027825;28;21015;-83
2023/04/18 07:51:09;;;;;;;14.57;10.70;;;9.80;99.90;;;;;;5026521;28;20515;-82
2023/04/18 07:53:36;;;;;;;14.20;10.43;;;9.70;1.00;;;;;;5027618;28;20978;-81
2023/04/18 07:56:03;;;;;;;16.20;11.93;;;9.70;99.90;;;;;;5028062;28;20865;-83
2023/04/18 07:58:29;;;;;;;14.67;11.30;;;9.90;99.90;;;;;;5028618;28;21013;-84
2023/04/18 08:00:58;;;;;;;12.40;10.10;;;10.00;99.90;;;;;;5028285;28;20484;-83
2023/04/18 08:03:26;;;;;;;15.83;11.50;;;10.30;99.90;;;;;;5029393;28;20566;-84
2023/04/18 08:05:53;;;;;;;12.37;10.07;;;10.60;99.90;;;;;;5028605;28;20456;-82
2023/04/18 08:08:20;;;;;;;12.70;9.60;;;11.00;99.90;;;;;;5027021;28;20488;-82
2023/04/18 08:10:47;;;;;;;14.70;9.40;;;11.00;1.00;;;;;;5024297;28;20511;-84
2023/04/18 08:13:14;;;;;;;11.77;9.30;;;11.00;1.00;;;;;;5026428;28;20524;-82
2023/04/18 08:15:41;;;;;;;12.47;9.73;;;11.10;99.90;;;;;;5019945;28;20464;-83
2023/04/18 08:18:09;;;;;;;12.47;9.30;;;11.00;1.00;;;;;;5013927;28;20499;-83
2023/04/18 08:20:36;;;;;;;12.13;9.13;;;10.90;1.00;;;;;;5015939;28;20445;-81
2023/04/18 08:23:02;;;;;;;12.60;9.20;;;11.00;1.00;;;;;;5012601;28;20526;-83
2023/04/18 08:25:30;;;;;;;13.97;10.53;;;11.20;1.00;;;;;;5017715;28;20441;-80
2023/04/18 08:27:57;;;;;;;11.87;8.10;;;11.40;99.90;;;;;;5018783;28;20488;-82
2023/04/18 08:30:24;;;;;;;9.77;8.30;;;11.50;99.90;;;;;;5018738;28;20826;-81
2023/04/18 08:32:51;;;;;;;10.90;8.00;;;11.70;1.00;;;;;;5015303;28;20458;-83
2023/04/18 08:35:19;;;;;;;10.20;8.07;;;11.60;1.00;;;;;;5016652;28;21018;-83
2023/04/18 08:37:46;;;;;;;12.30;8.47;;;11.60;1.00;;;;;;5015818;28;20525;-81
2023/04/18 08:40:13;;;;;;;10.60;8.77;;;11.60;1.00;;;;;;5017404;28;20464;-82
2023/04/18 08:42:43;;;;;;;10.07;8.50;;;11.40;99.90;;;;;;5016100;28;20972;-82
2023/04/18 08:45:12;;;;;;;10.83;7.90;;;11.40;99.90;;;;;;5016498;28;20432;-84
2023/04/18 08:47:39;;;;;;;12.17;8.07;;;11.00;99.90;;;;;;5015508;28;20492;-84
2023/04/18 08:50:08;;;;;;;13.50;8.17;;;11.00;99.90;;;;;;5017422;28;20457;-81
2023/04/18 08:52:38;;;;;;;12.60;10.10;;;10.90;1.00;;;;;;5015703;28;20555;-81
2023/04/18 08:55:06;;;;;;;10.00;8.13;;;10.60;99.90;;;;;;5016337;28;20440;-82
2023/04/18 08:57:35;;;;;;;22.93;9.57;;;10.70;99.90;;;;;;5016519;28;20476;-81
2023/04/18 09:00:06;;;;;;;11.70;8.87;;;10.60;76.30;;;;;;5016517;28;20457;-81
2023/04/18 09:02:41;;;;;;;11.93;8.47;;;10.50;98.40;;;;;;5015552;28;20461;-80
2023/04/18 09:05:13;;;;;;;12.73;10.30;;;10.70;99.90;;;;;;5016213;28;20440;-82
2023/04/18 09:07:41;;;;;;;10.10;8.77;;;10.60;99.90;;;;;;5016028;28;20502;-81
2023/04/18 09:10:09;;;;;;;11.70;9.23;;;10.60;1.00;;;;;;5013494;28;20470;-84
2023/04/18 09:12:46;;;;;;;13.10;9.10;;;10.40;1.00;;;;;;5015266;28;20470;-82
2023/04/18 09:15:14;;;;;;;13.80;10.00;;;10.40;1.00;;;;;;5015729;28;20840;-82
2023/04/18 09:17:44;;;;;;;11.70;9.33;;;10.40;9.10;;;;;;5015629;28;21022;-82
2023/04/18 09:20:14;;;;;;;10.87;9.13;;;10.60;61.50;;;;;;5015254;28;20463;-82
2023/04/18 09:22:50;;;;;;;10.37;8.13;;;10.70;78.80;;;;;;5015881;28;20461;-82
2023/04/18 09:25:26;;;;;;;14.13;10.00;;;10.70;31.10;;;;;;5016971;28;20457;-83
2023/04/18 09:27:53;;;;;;;13.50;9.57;;;10.70;1.00;;;;;;5016376;28;20512;-83
2023/04/18 09:30:31;;;;;;;13.00;10.23;;;10.80;99.90;;;;;;5016200;28;20449;-83
2023/04/18 09:33:00;;;;;;;10.60;8.93;;;11.00;1.00;;;;;;5014595;28;20500;-82
2023/04/18 09:35:27;;;;;;;14.60;11.20;;;11.00;99.90;;;;;;5015285;28;20484;-83
2023/04/18 09:37:55;;;;;;;12.27;9.50;;;10.90;99.90;;;;;;5015110;28;20471;-82
2023/04/18 09:40:23;;;;;;;13.07;10.40;;;11.00;1.00;;;;;;5014580;28;20464;-82
2023/04/18 09:42:53;;;;;;;11.37;10.13;;;11.00;1.00;;;;;;5013548;28;20467;-81
2023/04/18 09:45:20;;;;;;;9.93;7.83;;;11.10;99.90;;;;;;5014834;28;20468;-83
2023/04/18 09:47:47;;;;;;;12.37;9.77;;;11.40;99.90;;;;;;5015009;28;20478;-81
2023/04/18 09:50:15;;;;;;;13.47;10.60;;;11.70;99.90;;;;;;5014144;28;20449;-83
2023/04/18 09:52:43;;;;;;;14.80;10.50;;;12.10;1.00;;;;;;5014615;28;20462;-82
2023/04/18 09:55:14;;;;;;;10.97;9.00;;;12.20;99.90;;;;;;5014670;28;20461;-81
2023/04/18 09:57:44;;;;;;;13.07;8.40;;;12.10;99.90;;;;;;5014947;28;20473;-81
2023/04/18 10:00:16;;;;;;;12.73;9.40;;;12.20;99.90;;;;;;5015268;28;20446;-82
2023/04/18 10:02:49;;;;;;;12.40;10.80;;;12.10;99.90;;;;;;5014655;28;20452;-81
2023/04/18 10:05:16;;;;;;;13.53;10.97;;;12.20;99.90;;;;;;5015223;28;20481;-82
2023/04/18 10:07:46;;;;;;;14.57;10.97;;;12.50;99.90;;;;;;5015703;28;20478;-80
2023/04/18 10:10:15;;;;;;;13.40;10.00;;;12.70;1.00;;;;;;5013761;28;20460;-82
2023/04/18 10:12:42;;;;;;;11.30;9.80;;;12.90;1.00;;;;;;5014520;28;20454;-81
2023/04/18 10:15:10;;;;;;;12.40;10.47;;;13.00;99.90;;;;;;5014879;28;20462;-81
2023/04/18 10:17:45;;;;;;;13.60;10.90;;;12.60;1.00;;;;;;5014981;28;20471;-82
2023/04/18 10:20:22;;;;;;;12.77;10.77;;;12.60;1.00;;;;;;5016519;28;20454;-82
2023/04/18 10:22:51;;;;;;;13.47;10.60;;;12.50;1.00;;;;;;5015872;28;20445;-83
2023/04/18 10:25:50;;;;;;;14.03;10.77;;;12.60;1.00;;;;;;5016383;28;20985;-81
2023/04/18 10:28:17;;;;;;;12.53;10.00;;;12.90;1.00;;;;;;5016179;28;20500;-83
2023/04/18 10:30:55;;;;;;;11.97;9.63;;;13.20;1.00;;;;;;5016114;28;20450;-82
2023/04/18 10:33:29;;;;;;;14.27;10.97;;;13.60;99.90;;;;;;5015231;28;20536;-81
2023/04/18 10:36:05;;;;;;;12.10;9.13;;;14.60;99.90;;;;;;5019468;22;20498;-81
2023/04/18 10:38:33;;;;;;;10.37;8.87;;;15.90;99.90;;;;;;4994093;28;20960;-82
2023/04/18 10:41:21;;;;;;;13.93;9.60;;;16.40;99.90;;;;;;4992424;28;20452;-82
2023/04/18 10:44:20;;;;;;;10.97;9.20;;;16.40;99.90;;;;;;4994813;28;20456;-79
2023/04/18 10:47:18;;;;;;;10.63;9.17;;;16.70;99.90;;;;;;4975000;28;20443;-80
2023/04/18 10:49:54;;;;;;;13.97;11.13;;;16.60;99.90;;;;;;4974161;28;20495;-79
2023/04/18 10:52:21;;;;;;;14.03;10.57;;;16.60;99.90;;;;;;4977452;28;20435;-79
2023/04/18 10:54:53;;;;;;;11.20;9.37;;;17.00;99.90;;;;;;4977307;28;20559;-79
2023/04/18 10:57:21;;;;;;;11.20;9.77;;;17.60;99.90;;;;;;4976347;28;20458;-80
2023/04/18 10:59:50;;;;;;;12.17;10.47;;;17.50;99.90;;;;;;4980773;28;20459;-79
2023/04/18 11:02:25;;;;;;;13.53;10.87;;;16.90;99.90;;;;;;4980286;28;20466;-81
2023/04/18 11:04:53;;;;;;;13.30;11.70;;;16.40;99.90;;;;;;4976405;28;20541;-80
2023/04/18 11:07:31;;;;;;;13.17;10.10;;;15.30;99.90;;;;;;4974314;28;20501;-81
2023/04/18 11:09:58;;;;;;;12.43;10.37;;;15.70;99.90;;;;;;4980371;28;20482;-81
2023/04/18 11:12:30;;;;;;;11.37;10.10;;;17.40;99.90;;;;;;4976646;28;20485;-80
2023/04/18 11:14:57;;;;;;;12.77;10.63;;;18.60;99.90;;;;;;4980215;28;20485;-80
2023/04/18 11:17:25;;;;;;;12.00;10.60;;;18.60;99.90;;;;;;4983358;28;20474;-80
2023/04/18 11:20:00;;;;;;;12.33;11.03;;;18.30;99.90;;;;;;4985856;28;20455;-81
2023/04/18 11:22:27;;;;;;;13.50;11.27;;;17.50;99.90;;;;;;4980530;28;20478;-78
2023/04/18 11:24:58;;;;;;;14.20;11.97;;;17.40;99.90;;;;;;4985557;28;20510;-81
2023/04/18 11:27:26;;;;;;;14.37;12.47;;;17.00;99.90;;;;;;4982441;28;20458;-79
2023/04/18 11:29:53;;;;;;;18.10;13.30;;;16.30;99.90;;;;;;4980770;28;20487;-79
2023/04/18 11:32:22;;;;;;;12.63;11.33;;;15.70;99.90;;;;;;4979415;28;20463;-80
2023/04/18 11:34:52;;;;;;;14.60;10.90;;;15.30;99.90;;;;;;4980403;28;20507;-79
2023/04/18 11:37:19;;;;;;;15.10;11.80;;;15.50;99.90;;;;;;4979477;28;20894;-79
2023/04/18 11:39:46;;;;;;;12.30;10.90;;;16.30;99.90;;;;;;4980453;28;20495;-81
2023/04/18 11:42:13;;;;;;;12.67;11.13;;;17.20;99.90;;;;;;4978751;28;20557;-79
2023/04/18 11:44:45;;;;;;;15.77;11.60;;;17.60;99.90;;;;;;4979463;28;20462;-80
2023/04/18 11:47:25;;;;;;;16.47;11.37;;;17.30;99.90;;;;;;4979132;28;20461;-80
2023/04/18 11:49:56;;;;;;;13.73;11.53;;;16.50;99.90;;;;;;4978769;28;20482;-81
2023/04/18 11:52:24;;;;;;;15.03;11.70;;;16.60;99.90;;;;;;4978504;28;20446;-80
2023/04/18 11:54:51;;;;;;;14.33;11.60;;;16.00;99.90;;;;;;4978645;28;20479;-81
2023/04/18 11:57:25;;;;;;;12.80;10.00;;;16.10;99.90;;;;;;4959791;29;20460;-81
2023/04/18 11:59:55;;;;;;;13.77;11.27;;;16.20;99.90;;;;;;4977487;28;20542;-80
2023/04/18 12:02:23;;;;;;;13.80;11.13;;;16.40;99.90;;;;;;4978106;28;20561;-81
2023/04/18 12:04:54;;;;;;;10.97;9.83;;;16.30;99.90;;;;;;4978242;28;20562;-81
2023/04/18 12:07:36;;;;;;;12.37;10.27;;;16.50;99.90;;;;;;4979111;28;20447;-81
2023/04/18 12:10:05;;;;;;;12.60;10.70;;;17.00;99.90;;;;;;4978493;28;20491;-80
2023/04/18 12:12:32;;;;;;;11.80;10.60;;;17.50;99.90;;;;;;4978098;28;20487;-80
2023/04/18 12:15:06;;;;;;;11.93;10.70;;;18.80;99.90;;;;;;4979225;28;20509;-81
2023/04/18 12:17:34;;;;;;;12.50;11.20;;;19.90;99.90;;;;;;4979091;28;20936;-81
2023/04/18 12:20:02;;;;;;;13.20;11.70;;;18.60;99.90;;;;;;4978505;28;20495;-79
2023/04/18 12:22:40;;;;;;;13.10;10.60;;;17.90;99.90;;;;;;4977639;28;20466;-79
2023/04/18 12:25:18;;;;;;;12.37;11.07;;;17.20;99.90;;;;;;4978324;28;20836;-81
2023/04/18 12:27:49;;;;;;;14.87;12.67;;;16.70;99.90;;;;;;4977947;28;20489;-80
2023/04/18 12:30:20;;;;;;;17.17;13.30;;;16.30;99.90;;;;;;4978934;28;20572;-80
2023/04/18 12:32:49;;;;;;;14.30;12.47;;;16.40;99.90;;;;;;4977181;28;20458;-79
2023/04/18 12:35:16;;;;;;;14.87;12.63;;;16.40;99.90;;;;;;4976973;28;20514;-80
2023/04/18 12:37:43;;;;;;;14.40;12.40;;;15.90;99.90;;;;;;4977660;28;20455;-80
2023/04/18 12:40:12;;;;;;;14.90;12.50;;;16.10;99.90;;;;;;4977895;28;20465;-81
2023/04/18 12:42:39;;;;;;;18.30;12.10;;;16.20;99.90;;;;;;4978354;28;20917;-83
2023/04/18 12:45:07;;;;;;;15.90;13.00;;;16.50;99.90;;;;;;4977000;28;20478;-81
2023/04/18 12:47:35;;;;;;;15.43;13.20;;;16.00;99.90;;;;;;4981202;28;21006;-80
2023/04/18 12:50:02;;;;;;;14.43;11.77;;;16.40;99.90;;;;;;4984478;28;20510;-80
2023/04/18 12:52:30;;;;;;;13.40;10.97;;;16.60;99.90;;;;;;4979428;28;20502;-81
2023/04/18 12:54:57;;;;;;;13.93;11.87;;;16.90;99.90;;;;;;4976234;28;21023;-80